Time;durP1;ratioP1;P1;durP2;ratioP2;P2;SDS_P1;SDS_P2;PMS_P1;PMS_P2;Temp;Humidity;BMP_temperature;BMP_pressure;BME280_temperature;BME280_humidity;BME280_pressure;Samples;Min_cycle;Max_cycle;Signal;HPM_P1;HPM_P2
2022/02/27 00:02:13;;;;;;;;;;;5.40;99.90;;;;;;5034906;28;20366;-67
2022/02/27 00:04:38;;;;;;;;;;;5.50;99.90;;;;;;5035305;28;20312;-69
2022/02/27 00:07:04;;;;;;;;;;;5.40;99.90;;;;;;5034800;28;20137;-67
2022/02/27 00:09:30;;;;;;;;;;;5.30;99.90;;;;;;5036719;28;19962;-68
2022/02/27 00:11:55;;;;;;;;;;;5.30;99.90;;;;;;5056427;28;19915;-68
2022/02/27 00:14:21;;;;;;;;;;;5.20;99.90;;;;;;5055734;28;19909;-69
2022/02/27 00:16:46;;;;;;;;;;;5.20;99.90;;;;;;5056692;28;19987;-66
2022/02/27 00:19:12;;;;;;;;;;;5.10;99.90;;;;;;5038568;28;19912;-67
2022/02/27 00:21:38;;;;;;;;;;;5.10;99.90;;;;;;5058055;28;19924;-68
2022/02/27 00:24:04;;;;;;;;;;;5.00;99.90;;;;;;5058283;28;19911;-69
2022/02/27 00:26:29;;;;;;;;;;;5.00;99.90;;;;;;5057732;28;20408;-68
2022/02/27 00:28:54;;;;;;;;;;;4.90;99.90;;;;;;5056468;28;20242;-68
2022/02/27 00:31:20;;;;;;;;;;;4.90;99.90;;;;;;5055924;28;19958;-68
2022/02/27 00:33:46;;;;;;;;;;;4.90;99.90;;;;;;5038333;28;19904;-69
2022/02/27 00:36:11;;;;;;;;;;;4.80;99.90;;;;;;5055414;28;19905;-68
2022/02/27 00:38:37;;;;;;;;;;;4.90;99.90;;;;;;5038251;28;19940;-68
2022/02/27 00:41:02;;;;;;;;;;;4.90;99.90;;;;;;5037558;28;19904;-69
2022/02/27 00:43:28;;;;;;;;;;;4.90;99.90;;;;;;5056111;28;19913;-67
2022/02/27 00:45:53;;;;;;;;;;;4.90;99.90;;;;;;5038105;28;19909;-69
2022/02/27 00:48:19;;;;;;;;;;;4.90;99.90;;;;;;5054982;28;20291;-67
2022/02/27 00:50:44;;;;;;;;;;;4.80;99.90;;;;;;5037795;28;19908;-68
2022/02/27 00:53:10;;;;;;;;;;;4.90;99.90;;;;;;5054848;28;19905;-67
2022/02/27 00:55:35;;;;;;;;;;;4.90;99.90;;;;;;5037499;28;19954;-67
2022/02/27 00:58:02;;;;;;;;;;;4.80;99.90;;;;;;5037382;28;19905;-69
2022/02/27 01:00:27;;;;;;;;;;;4.80;99.90;;;;;;5037790;28;19960;-67
2022/02/27 01:02:53;;;;;;;;;;;4.80;99.90;;;;;;5055332;28;19939;-68
2022/02/27 01:05:18;;;;;;;;;;;4.70;99.90;;;;;;5054983;28;19916;-67
2022/02/27 01:07:44;;;;;;;;;;;4.70;99.90;;;;;;5039611;28;20348;-68
2022/02/27 01:10:09;;;;;;;;;;;4.70;99.90;;;;;;5055046;28;19909;-68
2022/02/27 01:12:35;;;;;;;;;;;4.70;99.90;;;;;;5054951;28;19909;-68
2022/02/27 01:15:01;;;;;;;;;;;4.70;99.90;;;;;;5037168;28;19909;-70
2022/02/27 01:17:27;;;;;;;;;;;4.70;99.90;;;;;;5037647;28;19912;-68
2022/02/27 01:19:53;;;;;;;;;;;4.70;99.90;;;;;;5055402;28;19905;-68
2022/02/27 01:22:19;;;;;;;;;;;4.70;99.90;;;;;;5054878;28;20301;-67
2022/02/27 01:24:46;;;;;;;;;;;4.60;99.90;;;;;;5055008;28;19966;-67
2022/02/27 01:27:11;;;;;;;;;;;4.60;99.90;;;;;;5054043;28;19913;-67
2022/02/27 01:29:37;;;;;;;;;;;4.60;99.90;;;;;;5054929;28;19911;-67
2022/02/27 01:32:02;;;;;;;;;;;4.70;99.90;;;;;;5054201;28;19912;-69
2022/02/27 01:34:28;;;;;;;;;;;4.60;99.90;;;;;;5054738;28;19909;-68
2022/02/27 01:36:53;;;;;;;;;;;4.60;99.90;;;;;;5036939;28;20436;-68
2022/02/27 01:39:20;;;;;;;;;;;4.60;99.90;;;;;;5036527;28;19904;-67
2022/02/27 01:41:45;;;;;;;;;;;4.50;99.90;;;;;;5055127;28;19958;-67
2022/02/27 01:44:11;;;;;;;;;;;4.60;99.90;;;;;;5036691;28;20311;-67
2022/02/27 01:46:55;;;;;;;;;;;4.60;99.90;;;;;;5054935;28;19913;-67
2022/02/27 01:49:20;;;;;;;;;;;4.50;99.90;;;;;;5037656;28;19955;-68
2022/02/27 01:51:46;;;;;;;;;;;4.50;99.90;;;;;;5038099;28;20346;-69
2022/02/27 01:54:11;;;;;;;;;;;4.40;99.90;;;;;;5056308;28;19928;-67
2022/02/27 01:56:37;;;;;;;;;;;4.40;99.90;;;;;;5055388;28;20425;-67
2022/02/27 01:59:02;;;;;;;;;;;4.30;99.90;;;;;;5054356;28;19912;-67
2022/02/27 02:01:28;;;;;;;;;;;4.30;99.90;;;;;;5036130;28;19999;-68
2022/02/27 02:03:53;;;;;;;;;;;4.30;99.90;;;;;;5036578;28;20011;-68
2022/02/27 02:06:19;;;;;;;;;;;4.20;99.90;;;;;;5053679;28;19913;-68
2022/02/27 02:08:44;;;;;;;;;;;4.20;99.90;;;;;;5054609;28;19958;-66
2022/02/27 02:11:11;;;;;;;;;;;4.10;99.90;;;;;;5036041;28;20336;-68
2022/02/27 02:13:40;;;;;;;;;;;4.10;99.90;;;;;;5054502;28;19950;-68
2022/02/27 02:16:06;;;;;;;;;;;4.20;99.90;;;;;;5036286;28;20003;-73
2022/02/27 02:18:31;;;;;;;;;;;4.20;99.90;;;;;;5037449;28;19951;-68
2022/02/27 02:20:57;;;;;;;;;;;4.20;99.90;;;;;;5054351;28;20000;-67
2022/02/27 02:23:22;;;;;;;;;;;4.20;99.90;;;;;;5054275;28;20288;-67
2022/02/27 02:25:47;;;;;;;;;;;4.20;99.90;;;;;;5055795;28;19905;-67
2022/02/27 02:28:13;;;;;;;;;;;4.10;99.90;;;;;;5055263;28;19913;-69
2022/02/27 02:30:38;;;;;;;;;;;4.00;99.90;;;;;;5055049;28;20298;-68
2022/02/27 02:33:04;;;;;;;;;;;3.90;99.90;;;;;;5035609;28;20341;-68
2022/02/27 02:35:30;;;;;;;;;;;3.90;99.90;;;;;;5035511;28;20034;-67
2022/02/27 02:37:55;;;;;;;;;;;3.90;99.90;;;;;;5053526;28;19904;-69
2022/02/27 02:40:22;;;;;;;;;;;4.00;99.90;;;;;;5053086;28;19911;-67
2022/02/27 02:42:47;;;;;;;;;;;4.00;99.90;;;;;;5035425;28;19905;-68
2022/02/27 02:45:13;;;;;;;;;;;4.00;99.90;;;;;;5035111;28;20412;-68
2022/02/27 02:47:43;;;;;;;;;;;4.00;99.90;;;;;;5053245;28;19916;-68
2022/02/27 02:50:09;;;;;;;;;;;3.90;99.90;;;;;;5018552;28;19959;-69
2022/02/27 02:52:35;;;;;;;;;;;3.90;99.90;;;;;;5053571;28;19908;-67
2022/02/27 02:55:02;;;;;;;;;;;3.90;99.90;;;;;;5035334;28;20266;-67
2022/02/27 02:57:27;;;;;;;;;;;3.80;99.90;;;;;;5033523;28;19961;-68
2022/02/27 02:59:53;;;;;;;;;;;3.80;99.90;;;;;;5052842;28;19950;-68
2022/02/27 03:02:22;;;;;;;;;;;3.80;99.90;;;;;;5052810;28;20354;-68
2022/02/27 03:04:53;;;;;;;;;;;3.80;99.90;;;;;;5035480;28;19919;-67
2022/02/27 03:07:23;;;;;;;;;;;3.80;99.90;;;;;;5034508;28;20408;-68
2022/02/27 03:09:50;;;;;;;;;;;3.80;99.90;;;;;;5031128;28;19909;-68
2022/02/27 03:12:24;;;;;;;;;;;3.80;99.90;;;;;;5013553;28;19909;-67
2022/02/27 03:15:02;;;;;;;;;;;3.80;99.90;;;;;;5014755;28;19951;-69
2022/02/27 03:17:32;;;;;;;;;;;3.80;99.90;;;;;;5031394;28;19971;-68
2022/02/27 03:20:00;;;;;;;;;;;3.80;99.90;;;;;;5015287;28;19909;-68
2022/02/27 03:22:26;;;;;;;;;;;3.60;99.90;;;;;;5014982;28;19998;-68
2022/02/27 03:24:53;;;;;;;;;;;3.50;99.90;;;;;;5017871;28;20460;-68
2022/02/27 03:27:20;;;;;;;;;;;3.60;99.90;;;;;;5029562;28;19913;-69
2022/02/27 03:29:47;;;;;;;;;;;3.50;99.90;;;;;;5012823;28;19912;-77
2022/02/27 03:32:14;;;;;;;;;;;3.50;99.90;;;;;;5012180;28;19906;-68
2022/02/27 03:34:41;;;;;;;;;;;3.60;99.90;;;;;;5013267;28;19905;-68
2022/02/27 03:37:08;;;;;;;;;;;3.50;99.90;;;;;;5013720;28;19949;-68
2022/02/27 03:39:40;;;;;;;;;;;3.50;99.90;;;;;;5012802;28;19906;-71
2022/02/27 03:42:06;;;;;;;;;;;3.50;99.90;;;;;;4996100;28;20363;-71
2022/02/27 03:44:31;;;;;;;;;;;3.50;99.90;;;;;;5013843;28;20011;-69
2022/02/27 03:46:57;;;;;;;;;;;3.50;99.90;;;;;;4998835;28;19996;-68
2022/02/27 03:49:24;;;;;;;;;;;3.60;99.90;;;;;;4998081;28;19975;-68
2022/02/27 03:51:54;;;;;;;;;;;3.50;99.90;;;;;;5015244;28;19913;-69
2022/02/27 03:54:22;;;;;;;;;;;3.40;99.90;;;;;;4998284;28;19909;-67
2022/02/27 03:56:52;;;;;;;;;;;3.50;99.90;;;;;;5014592;28;19913;-68
2022/02/27 03:59:30;;;;;;;;;;;3.50;99.90;;;;;;4998219;28;20003;-68
2022/02/27 04:01:59;;;;;;;;;;;3.60;99.90;;;;;;4998295;28;20349;-68
2022/02/27 04:04:29;;;;;;;;;;;3.60;99.90;;;;;;5014283;28;20000;-69
2022/02/27 04:06:55;;;;;;;;;;;3.60;99.90;;;;;;4996062;28;19913;-69
2022/02/27 04:09:20;;;;;;;;;;;3.60;99.90;;;;;;4997272;28;20382;-72
2022/02/27 04:11:46;;;;;;;;;;;3.60;99.90;;;;;;4996666;28;19909;-70
2022/02/27 04:14:13;;;;;;;;;;;3.60;99.90;;;;;;4998454;28;20438;-70
2022/02/27 04:16:39;;;;;;;;;;;3.60;99.90;;;;;;4998908;28;19933;-68
2022/02/27 04:19:08;;;;;;;;;;;3.60;99.90;;;;;;5000434;28;19910;-74
2022/02/27 04:21:35;;;;;;;;;;;3.60;99.90;;;;;;4998949;28;19925;-70
2022/02/27 04:24:02;;;;;;;;;;;3.60;99.90;;;;;;5003993;28;19906;-70
2022/02/27 04:26:32;;;;;;;;;;;3.70;99.90;;;;;;5016959;28;19972;-68
2022/02/27 04:29:04;;;;;;;;;;;3.70;99.90;;;;;;5018047;28;19905;-68
2022/02/27 04:31:35;;;;;;;;;;;3.60;99.90;;;;;;5015456;28;20354;-69
2022/02/27 04:34:15;;;;;;;;;;;3.60;99.90;;;;;;5016938;28;19936;-69
2022/02/27 04:36:45;;;;;;;;;;;3.60;99.90;;;;;;5015762;28;19913;-68
2022/02/27 04:39:11;;;;;;;;;;;3.60;99.90;;;;;;5016617;28;19905;-69
2022/02/27 04:41:40;;;;;;;;;;;3.60;99.90;;;;;;5014099;28;20040;-68
2022/02/27 04:44:09;;;;;;;;;;;3.60;99.90;;;;;;5014920;28;20000;-69
2022/02/27 04:46:36;;;;;;;;;;;3.60;99.90;;;;;;5016123;28;19933;-69
2022/02/27 04:49:10;;;;;;;;;;;3.50;99.90;;;;;;5016862;28;20381;-69
2022/02/27 04:51:40;;;;;;;;;;;3.40;99.90;;;;;;5015703;28;19905;-68
2022/02/27 04:54:10;;;;;;;;;;;3.40;99.90;;;;;;5015452;28;19949;-68
2022/02/27 04:56:42;;;;;;;;;;;3.40;99.90;;;;;;5015067;28;19911;-67
2022/02/27 04:59:10;;;;;;;;;;;3.40;99.90;;;;;;5016607;28;19932;-69
2022/02/27 05:01:40;;;;;;;;;;;3.40;99.90;;;;;;5016059;28;19912;-69
2022/02/27 05:04:06;;;;;;;;;;;3.40;99.90;;;;;;5016147;28;19941;-68
2022/02/27 05:06:34;;;;;;;;;;;3.40;99.90;;;;;;5016916;28;19959;-67
2022/02/27 05:09:05;;;;;;;;;;;3.30;99.90;;;;;;5016620;28;19911;-67
2022/02/27 05:11:40;;;;;;;;;;;3.30;99.90;;;;;;5017413;28;19906;-68
2022/02/27 05:14:08;;;;;;;;;;;3.10;99.90;;;;;;5018958;28;19914;-69
2022/02/27 05:16:37;;;;;;;;;;;3.10;99.90;;;;;;5020529;28;19905;-69
2022/02/27 05:19:05;;;;;;;;;;;3.10;99.90;;;;;;5017518;28;19927;-68
2022/02/27 05:21:31;;;;;;;;;;;3.00;99.90;;;;;;5016746;28;19917;-74
2022/02/27 05:23:57;;;;;;;;;;;2.90;99.90;;;;;;5016490;28;19945;-70
2022/02/27 05:26:22;;;;;;;;;;;3.00;99.90;;;;;;5016415;28;20359;-68
2022/02/27 05:28:50;;;;;;;;;;;2.90;99.90;;;;;;5019018;28;19916;-76
2022/02/27 05:31:24;;;;;;;;;;;2.90;99.90;;;;;;5016470;28;19912;-71
2022/02/27 05:33:53;;;;;;;;;;;2.80;99.90;;;;;;5015913;28;19967;-67
2022/02/27 05:36:20;;;;;;;;;;;2.80;99.90;;;;;;5018350;28;19987;-70
2022/02/27 05:38:49;;;;;;;;;;;2.90;99.90;;;;;;5017384;28;19948;-69
2022/02/27 05:41:21;;;;;;;;;;;2.90;99.90;;;;;;5017626;28;19909;-71
2022/02/27 05:44:01;;;;;;;;;;;2.90;99.90;;;;;;5018305;28;19913;-69
2022/02/27 05:46:27;;;;;;;;;;;2.90;99.90;;;;;;5018183;28;19935;-68
2022/02/27 05:48:53;;;;;;;;;;;3.00;99.90;;;;;;5017306;28;19906;-69
2022/02/27 05:51:18;;;;;;;;;;;3.00;99.90;;;;;;5015797;28;19987;-68
2022/02/27 05:53:44;;;;;;;;;;;3.00;99.90;;;;;;5014585;28;19905;-68
2022/02/27 05:56:10;;;;;;;;;;;3.20;99.90;;;;;;5014067;28;20401;-68
2022/02/27 05:58:36;;;;;;;;;;;3.20;99.90;;;;;;5014779;28;20000;-67
2022/02/27 06:01:02;;;;;;;;;;;3.20;99.90;;;;;;5014056;28;19905;-68
2022/02/27 06:03:27;;;;;;;;;;;3.20;99.90;;;;;;5014322;28;20282;-68
2022/02/27 06:05:53;;;;;;;;;;;3.20;99.90;;;;;;5014681;28;19905;-68
2022/02/27 06:08:19;;;;;;;;;;;3.20;99.90;;;;;;5012500;28;19964;-68
2022/02/27 06:10:44;;;;;;;;;;;3.20;99.90;;;;;;5014786;28;19905;-68
2022/02/27 06:13:10;;;;;;;;;;;3.20;99.90;;;;;;5014508;28;19906;-68
2022/02/27 06:15:35;;;;;;;;;;;3.30;99.90;;;;;;5014612;28;20275;-69
2022/02/27 06:18:01;;;;;;;;;;;3.30;99.90;;;;;;5013446;28;19905;-69
2022/02/27 06:20:26;;;;;;;;;;;3.10;99.90;;;;;;5014664;28;19905;-69
2022/02/27 06:22:52;;;;;;;;;;;3.10;99.90;;;;;;5037901;28;19912;-69
2022/02/27 06:25:19;;;;;;;;;;;3.10;99.90;;;;;;5057820;28;20343;-69
2022/02/27 06:27:45;;;;;;;;;;;3.20;99.90;;;;;;5036958;28;20285;-69
2022/02/27 06:30:14;;;;;;;;;;;3.40;99.90;;;;;;5036679;28;19911;-70
2022/02/27 06:32:40;;;;;;;;;;;3.40;99.90;;;;;;5057874;28;19928;-73
2022/02/27 06:35:07;;;;;;;;;;;3.20;99.90;;;;;;5040350;28;20321;-72
2022/02/27 06:37:33;;;;;;;;;;;3.30;99.90;;;;;;5038894;28;19904;-69
2022/02/27 06:39:58;;;;;;;;;;;3.30;99.90;;;;;;5055475;28;19963;-70
2022/02/27 06:42:24;;;;;;;;;;;3.30;99.90;;;;;;5036808;28;19986;-70
2022/02/27 06:44:49;;;;;;;;;;;3.30;99.90;;;;;;5036246;28;19966;-68
2022/02/27 06:47:15;;;;;;;;;;;3.50;99.90;;;;;;5053678;28;19912;-69
2022/02/27 06:49:40;;;;;;;;;;;3.60;99.90;;;;;;5053611;28;19909;-68
2022/02/27 06:52:06;;;;;;;;;;;3.60;99.90;;;;;;5036251;28;20360;-70
2022/02/27 06:54:31;;;;;;;;;;;3.80;99.90;;;;;;5038915;28;20038;-68
2022/02/27 06:56:57;;;;;;;;;;;3.80;99.90;;;;;;5056518;28;19912;-67
2022/02/27 06:59:22;;;;;;;;;;;3.90;99.90;;;;;;5032374;28;19909;-67
2022/02/27 07:01:48;;;;;;;;;;;4.30;99.90;;;;;;5041283;28;19917;-66
2022/02/27 07:04:13;;;;;;;;;;;4.50;99.90;;;;;;5051734;28;20003;-66
2022/02/27 07:06:39;;;;;;;;;;;4.70;99.90;;;;;;5034768;28;19913;-69
2022/02/27 07:09:04;;;;;;;;;;;4.90;99.90;;;;;;5043886;28;19905;-68
2022/02/27 07:11:30;;;;;;;;;;;5.30;99.90;;;;;;5046292;28;19931;-67
2022/02/27 07:13:55;;;;;;;;;;;5.40;99.90;;;;;;5043312;28;20337;-67
2022/02/27 07:16:24;;;;;;;;;;;5.80;99.90;;;;;;5046829;28;19905;-69
2022/02/27 07:18:49;;;;;;;;;;;6.00;99.90;;;;;;5053396;28;19909;-67
2022/02/27 07:21:15;;;;;;;;;;;6.20;99.90;;;;;;5034470;28;19970;-66
2022/02/27 07:23:41;;;;;;;;;;;6.30;99.90;;;;;;5053030;28;20485;-67
2022/02/27 07:26:07;;;;;;;;;;;6.60;99.90;;;;;;5053845;28;19904;-68
2022/02/27 07:28:32;;;;;;;;;;;6.70;99.90;;;;;;5050648;28;20358;-68
2022/02/27 07:30:58;;;;;;;;;;;6.80;99.90;;;;;;5053638;28;19905;-65
2022/02/27 07:33:23;;;;;;;;;;;6.90;99.90;;;;;;5036569;28;19911;-69
2022/02/27 07:35:49;;;;;;;;;;;7.30;99.90;;;;;;5050525;28;19914;-66
2022/02/27 07:38:15;;;;;;;;;;;7.70;99.90;;;;;;5056844;28;19971;-67
2022/02/27 07:40:40;;;;;;;;;;;7.80;99.90;;;;;;5055168;28;19916;-67
2022/02/27 07:43:06;;;;;;;;;;;7.70;99.90;;;;;;5046366;28;19913;-68
2022/02/27 07:45:31;;;;;;;;;;;8.10;99.90;;;;;;5067221;28;19910;-66
2022/02/27 07:47:57;;;;;;;;;;;8.40;99.90;;;;;;5059804;28;19913;-70
2022/02/27 07:50:22;;;;;;;;;;;8.80;99.30;;;;;;5043252;28;19999;-69
2022/02/27 07:52:48;;;;;;;;;;;8.80;98.90;;;;;;5070479;28;19909;-72
2022/02/27 07:55:13;;;;;;;;;;;8.60;99.00;;;;;;5067880;28;19905;-68
2022/02/27 07:57:39;;;;;;;;;;;8.50;98.70;;;;;;5054896;28;19909;-68
2022/02/27 08:00:06;;;;;;;;;;;8.30;99.00;;;;;;5060232;28;19909;-68
2022/02/27 08:02:31;;;;;;;;;;;8.50;99.20;;;;;;5070615;28;19972;-68
2022/02/27 08:04:57;;;;;;;;;;;8.90;99.00;;;;;;5037617;28;19947;-72
2022/02/27 08:07:23;;;;;;;;;;;8.90;98.20;;;;;;5042814;28;19916;-71
2022/02/27 08:09:48;;;;;;;;;;;9.10;98.00;;;;;;5036891;28;19912;-68
2022/02/27 08:12:14;;;;;;;;;;;9.00;98.10;;;;;;5032650;28;19932;-67
2022/02/27 08:14:39;;;;;;;;;;;9.10;97.60;;;;;;5054236;28;19912;-65
2022/02/27 08:17:05;;;;;;;;;;;9.30;97.70;;;;;;5034439;28;20342;-67
2022/02/27 08:19:30;;;;;;;;;;;9.40;97.50;;;;;;5036386;28;19908;-67
2022/02/27 08:21:56;;;;;;;;;;;9.30;97.30;;;;;;5053462;28;19916;-67
2022/02/27 08:24:21;;;;;;;;;;;9.20;97.60;;;;;;5054077;28;19911;-71
2022/02/27 08:26:47;;;;;;;;;;;9.60;97.70;;;;;;5053413;28;20361;-66
2022/02/27 08:29:12;;;;;;;;;;;8.70;98.10;;;;;;5034666;28;19969;-67
2022/02/27 08:31:44;;;;;;;;;;;9.30;97.70;;;;;;5039079;28;19917;-67
2022/02/27 08:34:10;;;;;;;;;;;10.00;97.30;;;;;;5031616;28;19983;-70
2022/02/27 08:36:36;;;;;;;;;;;10.60;96.10;;;;;;5041016;28;20376;-66
2022/02/27 08:39:03;;;;;;;;;;;10.20;96.40;;;;;;5056792;28;19959;-67
2022/02/27 08:41:28;;;;;;;;;;;10.50;96.10;;;;;;5030804;28;19909;-70
2022/02/27 08:43:54;;;;;;;;;;;10.60;95.60;;;;;;5042540;28;19909;-67
2022/02/27 08:46:20;;;;;;;;;;;10.60;96.00;;;;;;5032034;28;19988;-66
2022/02/27 08:48:46;;;;;;;;;;;10.30;96.10;;;;;;5044981;28;19909;-68
2022/02/27 08:51:12;;;;;;;;;;;9.70;97.40;;;;;;5040563;28;19970;-68
2022/02/27 08:53:37;;;;;;;;;;;10.40;96.20;;;;;;5040371;28;19958;-69
2022/02/27 08:56:03;;;;;;;;;;;10.50;95.20;;;;;;5051117;28;19984;-71
2022/02/27 08:58:29;;;;;;;;;;;9.50;97.00;;;;;;5030183;28;20003;-66
2022/02/27 09:00:54;;;;;;;;;;;9.50;97.10;;;;;;5056244;28;19959;-68
2022/02/27 09:03:24;;;;;;;;;;;9.50;96.90;;;;;;5055766;28;19908;-75
2022/02/27 09:05:51;;;;;;;;;;;9.50;96.70;;;;;;5056294;28;20266;-67
2022/02/27 09:08:17;;;;;;;;;;;9.10;97.50;;;;;;5039828;28;20017;-68
2022/02/27 09:10:43;;;;;;;;;;;10.30;96.20;;;;;;5037925;28;20308;-66
2022/02/27 09:13:08;;;;;;;;;;;10.10;95.80;;;;;;5052443;28;19921;-66
2022/02/27 09:15:34;;;;;;;;;;;9.60;96.20;;;;;;5041923;28;20377;-66
2022/02/27 09:18:00;;;;;;;;;;;10.60;95.60;;;;;;5038484;28;20285;-68
2022/02/27 09:20:25;;;;;;;;;;;9.90;95.40;;;;;;5039061;28;20007;-66
2022/02/27 09:22:51;;;;;;;;;;;10.30;95.00;;;;;;5038702;28;19905;-66
2022/02/27 09:25:17;;;;;;;;;;;10.60;95.00;;;;;;5055375;28;20348;-66
2022/02/27 09:27:42;;;;;;;;;;;10.50;94.80;;;;;;5061317;28;19955;-66
2022/02/27 09:30:08;;;;;;;;;;;11.50;94.40;;;;;;5055916;28;19911;-71
2022/02/27 09:32:33;;;;;;;;;;;12.40;92.90;;;;;;5035469;28;19915;-69
2022/02/27 09:35:00;;;;;;;;;;;12.50;91.80;;;;;;5033817;28;20267;-68
2022/02/27 09:37:26;;;;;;;;;;;11.70;92.30;;;;;;5034786;28;20031;-68
2022/02/27 09:39:53;;;;;;;;;;;12.50;91.10;;;;;;5020485;28;20442;-66
2022/02/27 09:42:19;;;;;;;;;;;12.80;90.90;;;;;;5032635;28;19920;-67
2022/02/27 09:44:45;;;;;;;;;;;13.10;90.50;;;;;;5036860;28;19909;-69
2022/02/27 09:47:14;;;;;;;;;;;13.00;89.00;;;;;;5037404;28;19920;-65
2022/02/27 09:49:46;;;;;;;;;;;11.90;90.80;;;;;;5055035;28;19991;-69
2022/02/27 09:52:15;;;;;;;;;;;11.50;90.80;;;;;;5038401;28;19963;-67
2022/02/27 09:54:41;;;;;;;;;;;12.40;91.00;;;;;;5054610;28;20278;-66
2022/02/27 09:57:07;;;;;;;;;;;12.50;90.40;;;;;;5036591;28;19911;-65
2022/02/27 09:59:33;;;;;;;;;;;12.60;88.90;;;;;;5036638;28;19940;-69
2022/02/27 10:01:59;;;;;;;;;;;12.30;90.20;;;;;;5036659;28;19915;-67
2022/02/27 10:04:25;;;;;;;;;;;12.80;89.20;;;;;;5036613;28;20000;-66
2022/02/27 10:06:50;;;;;;;;;;;12.50;89.60;;;;;;5054219;28;19913;-71
2022/02/27 10:09:23;;;;;;;;;;;12.60;88.90;;;;;;5036862;28;19962;-67
2022/02/27 10:11:50;;;;;;;;;;;12.40;88.10;;;;;;5054251;28;19905;-67
2022/02/27 10:14:26;;;;;;;;;;;12.50;89.10;;;;;;5054767;28;19955;-67
2022/02/27 10:17:01;;;;;;;;;;;13.10;87.50;;;;;;5054202;28;19912;-67
2022/02/27 10:19:26;;;;;;;;;;;13.30;86.20;;;;;;5054739;28;19908;-68
2022/02/27 10:21:52;;;;;;;;;;;13.00;86.00;;;;;;5054490;28;19917;-67
2022/02/27 10:24:18;;;;;;;;;;;12.70;86.80;;;;;;5036897;28;19904;-67
2022/02/27 10:26:45;;;;;;;;;;;13.30;87.30;;;;;;5055049;28;19912;-66
2022/02/27 10:29:12;;;;;;;;;;;12.50;86.40;;;;;;5037252;28;19904;-66
2022/02/27 10:31:39;;;;;;;;;;;11.80;87.40;;;;;;5038032;28;20273;-67
2022/02/27 10:34:11;;;;;;;;;;;11.60;89.80;;;;;;5056462;28;19991;-70
2022/02/27 10:36:36;;;;;;;;;;;11.60;89.00;;;;;;5037825;28;20003;-68
2022/02/27 10:39:03;;;;;;;;;;;13.00;86.60;;;;;;5055320;28;19940;-67
2022/02/27 10:41:36;;;;;;;;;;;12.70;85.60;;;;;;5036118;28;19916;-66
2022/02/27 10:44:02;;;;;;;;;;;13.80;83.60;;;;;;5055298;28;19917;-67
2022/02/27 10:46:29;;;;;;;;;;;13.00;85.90;;;;;;5037448;28;19953;-69
2022/02/27 10:48:55;;;;;;;;;;;13.50;84.40;;;;;;5054551;28;19951;-68
2022/02/27 10:51:21;;;;;;;;;;;14.00;82.40;;;;;;5049593;28;19964;-68
2022/02/27 10:53:47;;;;;;;;;;;13.10;84.50;;;;;;5035394;28;19937;-67
2022/02/27 10:56:13;;;;;;;;;;;13.80;85.60;;;;;;5017406;28;19909;-68
2022/02/27 10:58:40;;;;;;;;;;;14.80;85.30;;;;;;5052600;28;19908;-69
2022/02/27 11:01:15;;;;;;;;;;;15.10;84.90;;;;;;5046605;28;20274;-67
2022/02/27 11:03:41;;;;;;;;;;;14.20;86.80;;;;;;5052888;28;19911;-67
2022/02/27 11:06:07;;;;;;;;;;;14.00;85.90;;;;;;5053127;28;20376;-69
2022/02/27 11:08:33;;;;;;;;;;;14.50;87.00;;;;;;5035066;28;20369;-67
2022/02/27 11:10:59;;;;;;;;;;;14.00;88.20;;;;;;5034364;28;19948;-54
2022/02/27 11:13:25;;;;;;;;;;;;;;;;;;5032663;28;19909;-54
2022/02/27 11:15:51;;;;;;;;;;;;;;;;;;5029217;28;20414;-56
2022/02/27 11:18:17;;;;;;;;;;;;;;;;;;5049133;28;20405;-63
2022/02/27 11:20:43;;;;;;;;;;;;;;;;;;5029053;28;19998;-58
2022/02/27 11:23:09;;;;;;;;;;;;;;;;;;5048243;28;20143;-54
2022/02/27 11:25:35;;;;;;;;;;;;;;;;;;5048594;28;19948;-67
2022/02/27 11:28:01;;;;;;;;;;;;;;;;;;5030515;28;19956;-54
2022/02/27 11:30:27;;;;;;;;;;;;;;;;;;5035510;28;19912;-56
2022/02/27 11:32:53;;;;;;;;;;;;;;;;;;5053569;28;19905;-54
2022/02/27 11:35:19;;;;;;;;;;;;;;;;;;5052493;28;19916;-55
2022/02/27 11:37:45;;;;;;;;;;;;;;;;;;5052458;28;19905;-56
2022/02/27 11:40:29;;;;;;;;;;;;;;;;;;5052758;28;19950;-54
2022/02/27 11:42:55;;;;;;;;;;;;;;;;;;5035168;28;20067;-67
2022/02/27 11:45:41;;;;;;;;;;;13.00;73.00;;;;;;5053959;28;19931;-69
2022/02/27 11:48:06;;;;;;;;;;;12.40;74.60;;;;;;5030639;28;20003;-67
2022/02/27 11:50:36;;;;;;;;;;;12.00;74.70;;;;;;5056860;28;20002;-66
2022/02/27 11:53:02;;;;;;;;;;;12.50;74.60;;;;;;5070006;28;19927;-72
2022/02/27 11:55:41;;;;;;;;;;;12.70;73.70;;;;;;5036516;28;19905;-67
2022/02/27 11:58:07;;;;;;;;;;;11.80;74.30;;;;;;5053910;28;19936;-66
2022/02/27 12:00:37;;;;;;;;;;;11.90;75.40;;;;;;5053704;28;19905;-67
2022/02/27 12:03:23;;;;;;;;;;;12.40;74.10;;;;;;5054031;28;19915;-66
2022/02/27 12:05:48;;;;;;;;;;;12.10;74.00;;;;;;5033898;28;19977;-66
2022/02/27 12:08:14;;;;;;;;;;;12.00;74.20;;;;;;5056789;28;19912;-67
2022/02/27 12:10:41;;;;;;;;;;;11.70;75.60;;;;;;5046970;28;19909;-66
2022/02/27 12:13:26;;;;;;;;;;;12.30;73.20;;;;;;5033353;28;20359;-67
2022/02/27 12:16:02;;;;;;;;;;;12.50;72.10;;;;;;5053457;28;20102;-65
2022/02/27 12:18:28;;;;;;;;;;;11.90;72.80;;;;;;5059722;28;19916;-67
2022/02/27 12:20:58;;;;;;;;;;;12.30;73.70;;;;;;5033766;28;19917;-66
2022/02/27 12:23:41;;;;;;;;;;;12.00;74.00;;;;;;5053479;28;20342;-66
2022/02/27 12:26:08;;;;;;;;;;;11.50;74.10;;;;;;5035519;28;19915;-66
2022/02/27 12:28:57;;;;;;;;;;;11.50;75.30;;;;;;5036365;28;20419;-66
2022/02/27 12:31:25;;;;;;;;;;;12.00;74.40;;;;;;5032569;28;20281;-73
2022/02/27 12:33:51;;;;;;;;;;;12.50;72.50;;;;;;5032320;28;19909;-67
2022/02/27 12:36:24;;;;;;;;;;;11.90;74.30;;;;;;5052495;28;19909;-67
2022/02/27 12:38:54;;;;;;;;;;;13.00;72.30;;;;;;5043033;28;20266;-67
2022/02/27 12:41:19;;;;;;;;;;;13.80;70.30;;;;;;5043919;28;19912;-66
2022/02/27 12:43:45;;;;;;;;;;;13.10;71.10;;;;;;5047670;28;20271;-67
2022/02/27 12:46:11;;;;;;;;;;;12.40;71.70;;;;;;5040353;28;19913;-68
2022/02/27 12:51:27;;;;;;;;;;;13.30;70.30;;;;;;5048349;28;19928;-67
2022/02/27 12:53:56;;;;;;;;;;;14.10;69.40;;;;;;5043268;28;19913;-66
2022/02/27 12:56:25;;;;;;;;;;;14.80;68.70;;;;;;5030782;28;19910;-67
2022/02/27 12:58:54;;;;;;;;;;;14.70;67.20;;;;;;5037065;28;19909;-67
2022/02/27 13:01:29;;;;;;;;;;;13.80;66.60;;;;;;5013748;28;19919;-66
2022/02/27 13:04:08;;;;;;;;;;;13.40;67.10;;;;;;5012873;28;19916;-67
2022/02/27 13:06:35;;;;;;;;;;;14.10;67.10;;;;;;5031032;28;19909;-67
2022/02/27 13:09:02;;;;;;;;;;;13.60;66.80;;;;;;5016010;28;19966;-68
2022/02/27 13:11:42;;;;;;;;;;;14.40;66.20;;;;;;5019560;28;20355;-68
2022/02/27 13:14:08;;;;;;;;;;;14.60;66.30;;;;;;5029347;28;20374;-68
2022/02/27 13:16:33;;;;;;;;;;;13.20;66.30;;;;;;5028704;28;19916;-67
2022/02/27 13:19:00;;;;;;;;;;;12.70;67.30;;;;;;5037562;28;19913;-69
2022/02/27 13:21:26;;;;;;;;;;;13.50;67.40;;;;;;5032385;28;20250;-67
2022/02/27 13:23:58;;;;;;;;;;;13.30;67.00;;;;;;5050505;28;19992;-67
2022/02/27 13:26:24;;;;;;;;;;;13.60;67.50;;;;;;5044394;28;19969;-68
2022/02/27 13:28:53;;;;;;;;;;;14.10;66.40;;;;;;5036924;28;20018;-68
2022/02/27 13:31:19;;;;;;;;;;;14.30;65.80;;;;;;5014232;28;19931;-66
2022/02/27 13:33:46;;;;;;;;;;;14.90;65.30;;;;;;5049271;28;20386;-66
2022/02/27 13:36:12;;;;;;;;;;;14.20;65.20;;;;;;5032021;28;20019;-64
2022/02/27 13:38:38;;;;;;;;;;;15.00;64.50;;;;;;5032438;28;19931;-67
2022/02/27 13:41:03;;;;;;;;;;;15.30;62.40;;;;;;5024152;28;19976;-67
2022/02/27 13:43:29;;;;;;;;;;;16.10;63.00;;;;;;5036242;28;20012;-66
2022/02/27 13:45:55;;;;;;;;;;;16.20;61.40;;;;;;5044219;28;20353;-70
2022/02/27 13:48:27;;;;;;;;;;;15.00;61.40;;;;;;5031305;28;19923;-71
2022/02/27 13:50:52;;;;;;;;;;;14.10;62.60;;;;;;5030341;28;19958;-68
2022/02/27 13:53:18;;;;;;;;;;;14.00;63.10;;;;;;5049716;28;20345;-68
2022/02/27 13:55:46;;;;;;;;;;;13.00;65.40;;;;;;5049494;28;19967;-72
2022/02/27 13:58:16;;;;;;;;;;;14.40;65.10;;;;;;5050314;28;19942;-67
2022/02/27 14:00:55;;;;;;;;;;;15.00;65.30;;;;;;5047502;28;19908;-70
2022/02/27 14:03:30;;;;;;;;;;;15.10;62.40;;;;;;5050663;28;20341;-65
2022/02/27 14:05:57;;;;;;;;;;;13.70;64.70;;;;;;5049816;28;20286;-64
2022/02/27 14:08:25;;;;;;;;;;;13.70;69.90;;;;;;5047973;28;19916;-67
2022/02/27 14:11:02;;;;;;;;;;;14.80;73.00;;;;;;5048096;28;19978;-66
2022/02/27 14:13:27;;;;;;;;;;;14.80;63.00;;;;;;5048665;28;19952;-59
2022/02/27 14:16:01;;;;;;;;;;;15.50;75.10;;;;;;5048053;28;20314;-57
2022/02/27 14:18:26;;;;;;;;;;;16.70;72.90;;;;;;5024692;28;19908;-56
2022/02/27 14:20:55;;;;;;;;;;;17.50;72.70;;;;;;5035521;28;19990;-56
2022/02/27 14:23:27;;;;;;;;;;;17.90;67.50;;;;;;5037525;28;20217;-57
2022/02/27 14:25:53;;;;;;;;;;;18.20;84.90;;;;;;5026028;28;19904;-56
2022/02/27 14:28:19;;;;;;;;;;;18.90;76.50;;;;;;5025719;28;20329;-59
2022/02/27 14:30:45;;;;;;;;;;;19.20;73.90;;;;;;5029475;28;19916;-63
2022/02/27 14:33:11;;;;;;;;;;;19.00;71.00;;;;;;5047417;28;19913;-56